createdAt,value
2023-05-02T00:00:20.814Z,2.10
2023-05-02T00:01:20.823Z,2.60
2023-05-02T00:02:20.936Z,2.40
2023-05-02T00:03:20.904Z,2.00
2023-05-02T00:04:20.895Z,2.30
2023-05-02T00:05:20.829Z,2.30
2023-05-02T00:06:20.877Z,2.60
2023-05-02T00:07:20.866Z,2.40
2023-05-02T00:08:20.856Z,2.20
2023-05-02T00:09:20.860Z,2.10
2023-05-02T00:10:20.881Z,2.60
2023-05-02T00:11:20.871Z,2.40
2023-05-02T00:12:20.881Z,2.70
2023-05-02T00:13:21.044Z,2.30
2023-05-02T00:14:20.895Z,2.40
2023-05-02T00:15:20.898Z,2.40
2023-05-02T00:16:20.932Z,2.90
2023-05-02T00:17:20.989Z,2.50
2023-05-02T00:18:20.921Z,2.20
2023-05-02T00:19:20.927Z,2.70
2023-05-02T00:20:20.942Z,2.30
2023-05-02T00:21:20.954Z,2.00
2023-05-02T00:22:20.950Z,2.20
2023-05-02T00:23:20.958Z,1.90
2023-05-02T00:24:20.964Z,1.80
2023-05-02T00:25:20.965Z,1.90
2023-05-02T00:26:20.979Z,1.60
2023-05-02T00:27:20.982Z,1.90
2023-05-02T00:28:20.989Z,1.60
2023-05-02T00:29:21.012Z,1.90
2023-05-02T00:30:21.009Z,1.70
2023-05-02T00:31:21.042Z,1.90
2023-05-02T00:32:21.028Z,2.00
2023-05-02T00:33:21.027Z,1.90
2023-05-02T00:34:21.035Z,2.20
2023-05-02T00:35:21.041Z,2.20
2023-05-02T00:36:21.053Z,2.40
2023-05-02T00:37:21.048Z,2.90
2023-05-02T00:38:21.059Z,2.40
2023-05-02T00:39:21.059Z,2.90
2023-05-02T00:40:21.066Z,2.70
2023-05-02T00:41:21.082Z,2.70
2023-05-02T00:42:21.087Z,2.60
2023-05-02T00:43:21.096Z,2.70
2023-05-02T00:44:21.145Z,3.00
2023-05-02T00:45:21.122Z,2.70
2023-05-02T00:46:21.168Z,2.50
2023-05-02T00:47:21.119Z,2.60
2023-05-02T00:48:21.127Z,2.30
2023-05-02T00:49:21.139Z,1.90
2023-05-02T00:50:21.135Z,2.20
2023-05-02T00:51:21.148Z,2.40
2023-05-02T00:52:21.149Z,2.50
2023-05-02T00:53:21.155Z,2.10
2023-05-02T00:54:21.164Z,2.20
2023-05-02T00:55:21.166Z,2.30
2023-05-02T00:56:21.175Z,2.30
2023-05-02T00:57:21.181Z,2.60
2023-05-02T00:58:21.203Z,2.60
2023-05-02T00:59:21.189Z,2.40
2023-05-02T01:00:21.205Z,2.90
2023-05-02T01:01:21.259Z,2.90
2023-05-02T01:02:21.243Z,2.70
2023-05-02T01:03:21.329Z,2.90
2023-05-02T01:04:21.264Z,2.90
2023-05-02T01:05:21.241Z,2.50
2023-05-02T01:06:21.271Z,2.50
2023-05-02T01:07:21.242Z,2.30
2023-05-02T01:08:21.255Z,2.60
2023-05-02T01:09:21.260Z,2.60
2023-05-02T01:10:21.271Z,2.40
2023-05-02T01:11:21.275Z,2.40
2023-05-02T01:12:21.279Z,2.60
2023-05-02T01:13:21.274Z,2.50
2023-05-02T01:14:21.323Z,2.20
2023-05-02T01:15:21.298Z,2.10
2023-05-02T01:16:21.362Z,2.50
2023-05-02T01:17:21.325Z,2.40
2023-05-02T01:18:21.322Z,2.30
2023-05-02T01:19:21.317Z,2.10
2023-05-02T01:20:21.359Z,2.30
2023-05-02T01:21:21.332Z,2.30
2023-05-02T01:22:21.334Z,2.50
2023-05-02T01:23:21.343Z,2.40
2023-05-02T01:24:21.346Z,2.60
2023-05-02T01:25:21.364Z,2.20
2023-05-02T01:26:21.378Z,2.30
2023-05-02T01:27:21.370Z,2.40
2023-05-02T01:28:21.370Z,2.40
2023-05-02T01:29:21.388Z,2.00
2023-05-02T01:30:21.386Z,2.50
2023-05-02T01:31:21.401Z,2.20
2023-05-02T01:32:21.397Z,2.10
2023-05-02T01:33:21.432Z,2.50
2023-05-02T01:34:21.435Z,2.50
2023-05-02T01:35:21.421Z,2.50
2023-05-02T01:36:21.425Z,2.40
2023-05-02T01:37:21.433Z,2.30
2023-05-02T01:38:21.456Z,2.30
2023-05-02T01:39:21.458Z,2.40
2023-05-02T01:40:21.460Z,2.40
2023-05-02T01:41:21.454Z,2.40
2023-05-02T01:42:21.462Z,2.10
2023-05-02T01:43:21.489Z,2.30
2023-05-02T01:44:21.492Z,2.30
2023-05-02T01:45:21.496Z,2.40
2023-05-02T01:46:21.511Z,2.40
2023-05-02T01:47:21.572Z,2.60
2023-05-02T01:48:21.502Z,2.80
2023-05-02T01:49:21.529Z,2.70
2023-05-02T01:50:21.518Z,2.60
2023-05-02T01:51:21.529Z,2.50
2023-05-02T01:52:21.529Z,3.00
2023-05-02T01:53:21.539Z,2.60
2023-05-02T01:54:21.533Z,2.50
2023-05-02T01:55:21.544Z,3.20
2023-05-02T01:56:21.548Z,3.20
2023-05-02T01:57:21.567Z,3.00
2023-05-02T01:58:21.567Z,3.30
2023-05-02T01:59:21.611Z,3.30
2023-05-02T02:00:21.587Z,2.80
2023-05-02T02:01:21.620Z,3.10
2023-05-02T02:02:21.603Z,2.90
2023-05-02T02:03:21.667Z,2.70
2023-05-02T02:04:21.737Z,2.90
2023-05-02T02:05:21.645Z,3.00
2023-05-02T02:06:21.676Z,3.20
2023-05-02T02:07:21.636Z,3.40
2023-05-02T02:08:21.629Z,3.00
2023-05-02T02:09:21.639Z,2.90
2023-05-02T02:10:21.643Z,3.20
2023-05-02T02:11:21.656Z,2.80
2023-05-02T02:12:21.653Z,3.10
2023-05-02T02:13:21.664Z,3.10
2023-05-02T02:14:21.678Z,2.60
2023-05-02T02:15:21.677Z,2.30
2023-05-02T02:16:21.770Z,2.50
2023-05-02T02:17:21.689Z,2.90
2023-05-02T02:18:21.698Z,2.70
2023-05-02T02:19:21.725Z,2.70
2023-05-02T02:20:21.703Z,2.80
2023-05-02T02:21:21.746Z,2.90
2023-05-02T02:22:21.718Z,3.10
2023-05-02T02:23:21.725Z,3.40
2023-05-02T02:24:21.735Z,2.80
2023-05-02T02:25:21.745Z,3.40
2023-05-02T02:26:21.748Z,3.00
2023-05-02T02:27:21.757Z,3.00
2023-05-02T02:28:21.765Z,2.90
2023-05-02T02:29:21.768Z,3.00
2023-05-02T02:30:21.806Z,3.20
2023-05-02T02:31:21.813Z,3.20
2023-05-02T02:32:21.794Z,3.10
2023-05-02T02:33:21.797Z,3.10
2023-05-02T02:34:21.797Z,3.20
2023-05-02T02:35:21.805Z,3.20
2023-05-02T02:36:21.812Z,2.70
2023-05-02T02:37:21.949Z,2.70
2023-05-02T02:38:21.823Z,2.60
2023-05-02T02:39:21.843Z,2.70
2023-05-02T02:40:21.847Z,2.30
2023-05-02T02:41:21.850Z,2.70
2023-05-02T02:42:21.848Z,3.10
2023-05-02T02:43:21.861Z,3.50
2023-05-02T02:44:21.867Z,3.10
2023-05-02T02:45:21.885Z,3.30
2023-05-02T02:46:21.926Z,3.00
2023-05-02T02:47:21.891Z,3.00
2023-05-02T02:48:21.888Z,3.20
2023-05-02T02:49:21.902Z,2.80
2023-05-02T02:50:21.909Z,2.90
2023-05-02T02:51:21.925Z,3.30
2023-05-02T02:52:21.918Z,3.20
2023-05-02T02:53:21.951Z,3.10
2023-05-02T02:54:27.170Z,3.10
2023-05-02T02:55:21.949Z,3.00
2023-05-02T02:56:21.948Z,2.90
2023-05-02T02:57:21.953Z,3.10
2023-05-02T02:58:21.957Z,3.10
2023-05-02T02:59:21.974Z,2.80
2023-05-02T03:00:21.972Z,2.80
2023-05-02T03:01:22.120Z,2.80
2023-05-02T03:02:21.984Z,2.90
2023-05-02T03:03:22.106Z,2.80
2023-05-02T03:04:22.063Z,3.00
2023-05-02T03:05:22.006Z,3.00
2023-05-02T03:06:22.104Z,3.20
2023-05-02T03:07:22.026Z,3.10
2023-05-02T03:08:22.021Z,2.90
2023-05-02T03:09:22.053Z,2.80
2023-05-02T03:10:22.037Z,3.00
2023-05-02T03:11:22.042Z,3.00
2023-05-02T03:12:22.047Z,3.00
2023-05-02T03:13:22.067Z,3.20
2023-05-02T03:14:22.061Z,2.90
2023-05-02T03:15:22.089Z,3.00
2023-05-02T03:16:22.113Z,2.70
2023-05-02T03:17:24.246Z,2.80
2023-05-02T03:18:22.092Z,2.60
2023-05-02T03:19:22.108Z,2.50
2023-05-02T03:20:22.114Z,2.80
2023-05-02T03:21:22.116Z,2.70
2023-05-02T03:22:22.115Z,2.80
2023-05-02T03:23:22.125Z,2.80
2023-05-02T03:24:22.128Z,2.50
2023-05-02T03:25:22.159Z,2.80
2023-05-02T03:26:22.166Z,2.50
2023-05-02T03:27:22.164Z,2.80
2023-05-02T03:28:22.164Z,2.70
2023-05-02T03:29:22.167Z,2.80
2023-05-02T03:30:22.169Z,2.80
2023-05-02T03:31:24.014Z,3.00
2023-05-02T03:32:22.241Z,2.80
2023-05-02T03:33:22.200Z,2.60
2023-05-02T03:34:22.218Z,2.60
2023-05-02T03:35:22.212Z,2.60
2023-05-02T03:36:22.242Z,2.40
2023-05-02T03:37:22.223Z,2.50
2023-05-02T03:38:22.225Z,2.70
2023-05-02T03:39:22.238Z,2.20
2023-05-02T03:40:22.250Z,2.60
2023-05-02T03:41:22.300Z,2.50
2023-05-02T03:42:22.251Z,2.60
2023-05-02T03:43:22.268Z,2.40
2023-05-02T03:44:22.280Z,2.40
2023-05-02T03:45:22.289Z,2.30
2023-05-02T03:46:22.350Z,2.20
2023-05-02T03:47:22.324Z,2.30
2023-05-02T03:48:22.299Z,2.30
2023-05-02T03:49:22.316Z,2.30
2023-05-02T03:50:22.307Z,2.10
2023-05-02T03:51:22.329Z,2.10
2023-05-02T03:52:22.324Z,2.30
2023-05-02T03:53:22.329Z,2.40
2023-05-02T03:54:22.335Z,2.10
2023-05-02T03:55:22.345Z,2.50
2023-05-02T03:56:22.362Z,2.20
2023-05-02T03:57:22.385Z,2.40
2023-05-02T03:58:22.383Z,2.50
2023-05-02T03:59:22.375Z,2.70
2023-05-02T04:00:22.385Z,2.60
2023-05-02T04:01:22.414Z,2.70
2023-05-02T04:02:22.533Z,2.50
2023-05-02T04:03:22.430Z,2.40
2023-05-02T04:04:22.523Z,2.40
2023-05-02T04:05:22.427Z,2.40
2023-05-02T04:06:22.474Z,2.50
2023-05-02T04:07:22.445Z,2.50
2023-05-02T04:08:22.440Z,2.40
2023-05-02T04:09:22.459Z,2.80
2023-05-02T04:10:22.450Z,3.00
2023-05-02T04:11:22.463Z,2.40
2023-05-02T04:12:22.461Z,2.40
2023-05-02T04:13:22.490Z,2.40
2023-05-02T04:14:22.477Z,2.40
2023-05-02T04:15:22.499Z,2.30
2023-05-02T04:16:22.520Z,2.30
2023-05-02T04:17:22.505Z,2.30
2023-05-02T04:18:22.503Z,2.40
2023-05-02T04:19:22.510Z,2.50
2023-05-02T04:20:22.520Z,2.30
2023-05-02T04:21:22.527Z,2.00
2023-05-02T04:22:22.530Z,2.40
2023-05-02T04:23:22.541Z,2.50
2023-05-02T04:24:22.560Z,2.40
2023-05-02T04:25:22.568Z,2.30
2023-05-02T04:26:22.560Z,2.70
2023-05-02T04:27:22.584Z,2.80
2023-05-02T04:28:22.586Z,2.60
2023-05-02T04:29:22.604Z,2.40
2023-05-02T04:30:22.589Z,2.80
2023-05-02T04:31:22.691Z,3.00
2023-05-02T04:32:22.597Z,2.70
2023-05-02T04:33:22.620Z,2.90
2023-05-02T04:34:22.615Z,3.50
2023-05-02T04:35:22.620Z,3.80
2023-05-02T04:36:22.641Z,5.30
2023-05-02T04:37:22.637Z,4.20
2023-05-02T04:38:22.658Z,3.30
2023-05-02T04:39:22.653Z,3.00
2023-05-02T04:40:22.655Z,2.80
2023-05-02T04:41:22.664Z,2.80
2023-05-02T04:42:22.675Z,2.80
2023-05-02T04:43:24.613Z,3.00
2023-05-02T04:44:22.679Z,2.80
2023-05-02T04:45:22.706Z,2.70
2023-05-02T04:46:22.722Z,2.80
2023-05-02T04:47:22.804Z,2.70
2023-05-02T04:48:22.721Z,3.00
2023-05-02T04:49:22.727Z,2.90
2023-05-02T04:50:22.721Z,2.80
2023-05-02T04:51:22.733Z,2.50
2023-05-02T04:52:22.745Z,2.90
2023-05-02T04:53:22.764Z,2.60
2023-05-02T04:54:22.748Z,2.80
2023-05-02T04:55:22.764Z,2.90
2023-05-02T04:56:22.761Z,4.10
2023-05-02T04:57:23.500Z,3.20
2023-05-02T04:58:22.778Z,2.50
2023-05-02T04:59:22.784Z,2.60
2023-05-02T05:00:22.790Z,2.60
2023-05-02T05:01:22.841Z,2.40
2023-05-02T05:02:22.873Z,2.70
2023-05-02T05:03:22.984Z,2.70
2023-05-02T05:04:22.901Z,2.50
2023-05-02T05:05:22.874Z,2.70
2023-05-02T05:06:22.955Z,2.30
2023-05-02T05:07:22.839Z,2.50
2023-05-02T05:08:22.864Z,2.40
2023-05-02T05:09:22.855Z,2.40
2023-05-02T05:10:22.858Z,2.50
2023-05-02T05:11:22.869Z,2.60
2023-05-02T05:12:22.871Z,2.40
2023-05-02T05:13:22.882Z,2.10
2023-05-02T05:14:22.890Z,2.50
2023-05-02T05:15:22.893Z,2.40
2023-05-02T05:16:23.006Z,2.80
2023-05-02T05:17:23.027Z,2.70
2023-05-02T05:18:22.911Z,2.80
2023-05-02T05:19:22.925Z,2.50
2023-05-02T05:20:22.925Z,2.50
2023-05-02T05:21:22.942Z,2.70
2023-05-02T05:22:22.939Z,2.70
2023-05-02T05:23:22.950Z,2.50
2023-05-02T05:24:22.955Z,2.40
2023-05-02T05:25:22.967Z,2.70
2023-05-02T05:26:22.972Z,2.60
2023-05-02T05:27:23.030Z,2.40
2023-05-02T05:28:22.990Z,2.70
2023-05-02T05:29:22.992Z,2.30
2023-05-02T05:30:22.996Z,2.60
2023-05-02T05:31:23.026Z,2.70
2023-05-02T05:32:23.073Z,2.60
2023-05-02T05:33:23.178Z,2.70
2023-05-02T05:34:23.028Z,2.50
2023-05-02T05:35:23.028Z,2.70
2023-05-02T05:36:23.811Z,2.60
2023-05-02T05:37:23.044Z,2.30
2023-05-02T05:38:23.057Z,2.50
2023-05-02T05:39:23.058Z,2.30
2023-05-02T05:40:23.075Z,2.60
2023-05-02T05:41:23.077Z,2.30
2023-05-02T05:42:23.093Z,2.60
2023-05-02T05:43:23.089Z,2.80
2023-05-02T05:44:23.100Z,3.00
2023-05-02T05:45:23.114Z,2.50
2023-05-02T05:46:23.223Z,2.60
2023-05-02T05:47:23.286Z,2.70
2023-05-02T05:48:23.152Z,2.90
2023-05-02T05:49:23.154Z,2.70
2023-05-02T05:50:23.143Z,2.60
2023-05-02T05:51:23.147Z,2.90
2023-05-02T05:52:23.162Z,3.00
2023-05-02T05:53:23.163Z,2.80
2023-05-02T05:54:23.181Z,2.70
2023-05-02T05:55:23.177Z,2.50
2023-05-02T05:56:23.217Z,2.90
2023-05-02T05:57:23.195Z,2.80
2023-05-02T05:58:23.203Z,2.70
2023-05-02T05:59:23.219Z,2.70
2023-05-02T06:00:23.218Z,3.10
2023-05-02T06:01:23.219Z,2.70
2023-05-02T06:02:23.459Z,3.10
2023-05-02T06:03:23.422Z,2.50
2023-05-02T06:04:23.291Z,2.90
2023-05-02T06:05:23.275Z,2.60
2023-05-02T06:06:23.310Z,2.90
2023-05-02T06:07:23.270Z,3.20
2023-05-02T06:08:23.282Z,3.10
2023-05-02T06:09:23.281Z,2.90
2023-05-02T06:10:23.293Z,3.00
2023-05-02T06:11:23.297Z,2.50
2023-05-02T06:12:23.305Z,2.60
2023-05-02T06:13:23.312Z,2.70
2023-05-02T06:14:23.325Z,2.60
2023-05-02T06:15:23.324Z,2.30
2023-05-02T06:16:23.371Z,2.40
2023-05-02T06:17:23.463Z,2.70
2023-05-02T06:18:23.348Z,2.70
2023-05-02T06:19:23.361Z,2.20
2023-05-02T06:20:23.369Z,2.40
2023-05-02T06:21:23.390Z,2.80
2023-05-02T06:22:23.381Z,2.50
2023-05-02T06:23:23.388Z,2.40
2023-05-02T06:24:23.401Z,3.40
2023-05-02T06:25:23.407Z,3.30
2023-05-02T06:26:23.408Z,2.70
2023-05-02T06:27:23.411Z,4.70
2023-05-02T06:28:23.425Z,4.50
2023-05-02T06:29:23.425Z,2.90
2023-05-02T06:30:23.442Z,2.90
2023-05-02T06:31:23.517Z,2.70
2023-05-02T06:32:23.450Z,2.30
2023-05-02T06:33:23.459Z,2.70
2023-05-02T06:34:23.471Z,2.40
2023-05-02T06:35:23.468Z,2.10
2023-05-02T06:36:23.484Z,2.40
2023-05-02T06:37:23.505Z,2.30
2023-05-02T06:38:23.494Z,2.10
2023-05-02T06:39:23.504Z,2.20
2023-05-02T06:40:23.503Z,2.50
2023-05-02T06:41:23.510Z,2.70
2023-05-02T06:42:23.522Z,2.70
2023-05-02T06:43:23.532Z,3.00
2023-05-02T06:44:23.534Z,2.80
2023-05-02T06:45:23.542Z,2.80
2023-05-02T06:46:23.585Z,2.60
2023-05-02T06:47:23.581Z,2.90
2023-05-02T06:48:23.581Z,2.70
2023-05-02T06:49:23.616Z,2.70
2023-05-02T06:50:23.590Z,2.70
2023-05-02T06:51:23.587Z,2.50
2023-05-02T06:52:23.595Z,2.50
2023-05-02T06:53:23.695Z,2.20
2023-05-02T06:54:23.610Z,2.50
2023-05-02T06:55:23.615Z,2.00
2023-05-02T06:56:23.619Z,2.20
2023-05-02T06:57:23.624Z,2.10
2023-05-02T06:58:23.636Z,2.30
2023-05-02T06:59:23.644Z,2.60
2023-05-02T07:00:23.660Z,2.20
2023-05-02T07:01:23.689Z,2.40
2023-05-02T07:02:23.701Z,2.10
2023-05-02T07:03:23.668Z,2.10
2023-05-02T07:04:23.731Z,2.50
2023-05-02T07:05:23.681Z,2.40
2023-05-02T07:06:23.723Z,2.40
2023-05-02T07:07:23.700Z,3.10
2023-05-02T07:08:23.710Z,3.30
2023-05-02T07:09:23.731Z,2.70
2023-05-02T07:10:23.724Z,2.50
2023-05-02T07:11:23.731Z,2.70
2023-05-02T07:12:23.739Z,2.60
2023-05-02T07:13:23.742Z,3.00
2023-05-02T07:14:23.750Z,3.00
2023-05-02T07:15:23.752Z,5.00
2023-05-02T07:16:23.782Z,3.30
2023-05-02T07:17:23.819Z,3.00
2023-05-02T07:18:23.776Z,2.60
2023-05-02T07:19:23.782Z,3.20
2023-05-02T07:20:23.797Z,3.40
2023-05-02T07:21:23.797Z,3.60
2023-05-02T07:22:23.810Z,3.40
2023-05-02T07:23:23.811Z,2.90
2023-05-02T07:24:23.821Z,2.10
2023-05-02T07:25:23.874Z,2.00
2023-05-02T07:26:23.840Z,2.40
2023-05-02T07:27:23.841Z,2.60
2023-05-02T07:28:23.854Z,2.60
2023-05-02T07:29:23.858Z,2.50
2023-05-02T07:30:23.907Z,2.60
2023-05-02T07:31:23.897Z,1.80
2023-05-02T07:32:23.997Z,2.40
2023-05-02T07:33:23.978Z,3.00
2023-05-02T07:34:23.901Z,3.50
2023-05-02T07:35:23.894Z,3.60
2023-05-02T07:36:23.908Z,3.30
2023-05-02T07:37:23.939Z,2.80
2023-05-02T07:38:23.922Z,2.60
2023-05-02T07:39:23.930Z,2.60
2023-05-02T07:40:23.983Z,2.90
2023-05-02T07:41:23.966Z,2.30
2023-05-02T07:42:23.953Z,2.10
2023-05-02T07:43:23.958Z,2.00
2023-05-02T07:44:23.969Z,2.30
2023-05-02T07:45:23.983Z,2.60
2023-05-02T07:46:24.013Z,2.50
2023-05-02T07:47:24.020Z,2.50
2023-05-02T07:48:25.425Z,2.60
2023-05-02T07:49:24.020Z,2.60
2023-05-02T07:50:24.053Z,2.60
2023-05-02T07:51:24.028Z,2.30
2023-05-02T07:52:24.032Z,2.40
2023-05-02T07:53:24.041Z,2.20
2023-05-02T07:54:24.054Z,2.40
2023-05-02T07:55:24.086Z,2.50
2023-05-02T07:56:24.057Z,2.20
2023-05-02T07:57:24.093Z,2.50
2023-05-02T07:58:24.073Z,2.90
2023-05-02T07:59:24.098Z,2.30
2023-05-02T08:00:24.131Z,2.60
2023-05-02T08:01:24.094Z,3.20
2023-05-02T08:02:24.236Z,2.20
2023-05-02T08:03:24.324Z,2.80
2023-05-02T08:04:24.325Z,2.80
2023-05-02T08:05:24.126Z,2.10
2023-05-02T08:06:24.165Z,2.20
2023-05-02T08:07:24.140Z,2.40
2023-05-02T08:08:24.146Z,2.60
2023-05-02T08:09:24.157Z,2.80
2023-05-02T08:10:24.247Z,3.00
2023-05-02T08:11:24.165Z,3.00
2023-05-02T08:12:24.178Z,3.10
2023-05-02T08:13:24.217Z,3.20
2023-05-02T08:14:24.195Z,4.40
2023-05-02T08:15:24.199Z,17.40
2023-05-02T08:16:24.240Z,33.50
2023-05-02T08:17:24.277Z,24.90
2023-05-02T08:18:24.228Z,41.00
2023-05-02T08:19:24.231Z,34.50
2023-05-02T08:20:24.243Z,31.60
2023-05-02T08:21:24.245Z,38.30
2023-05-02T08:22:24.258Z,34.00
2023-05-02T08:23:24.266Z,33.70
2023-05-02T08:24:24.269Z,22.20
2023-05-02T08:25:24.279Z,39.40
2023-05-02T08:26:24.289Z,31.70
2023-05-02T08:27:24.298Z,35.00
2023-05-02T08:28:24.304Z,32.20
2023-05-02T08:29:24.352Z,9.50
2023-05-02T08:30:24.319Z,5.00
2023-05-02T08:31:24.364Z,6.30
2023-05-02T08:32:24.345Z,9.80
2023-05-02T08:33:24.378Z,6.90
2023-05-02T08:34:24.373Z,5.40
2023-05-02T08:35:24.354Z,4.80
2023-05-02T08:36:24.365Z,4.50
2023-05-02T08:37:24.407Z,3.40
2023-05-02T08:38:24.386Z,4.30
2023-05-02T08:39:24.398Z,12.30
2023-05-02T08:40:34.022Z,24.90
2023-05-02T08:41:24.412Z,5.40
2023-05-02T08:42:24.415Z,4.60
2023-05-02T08:43:24.419Z,4.30
2023-05-02T08:44:24.431Z,3.80
2023-05-02T08:45:24.481Z,2.90
2023-05-02T08:46:24.506Z,2.40
2023-05-02T08:47:24.632Z,2.40
2023-05-02T08:48:24.460Z,2.30
2023-05-02T08:49:24.475Z,3.10
2023-05-02T08:50:24.472Z,2.90
2023-05-02T08:51:24.487Z,4.30
2023-05-02T08:52:24.551Z,4.20
2023-05-02T08:53:24.504Z,4.70
2023-05-02T08:54:24.507Z,5.00
2023-05-02T08:55:24.520Z,5.40
2023-05-02T08:56:24.535Z,8.80
2023-05-02T08:57:24.529Z,16.10
2023-05-02T08:58:24.550Z,8.20
2023-05-02T08:59:24.557Z,30.50
2023-05-02T09:00:24.565Z,44.90
2023-05-02T09:01:24.668Z,12.20
2023-05-02T09:02:24.622Z,5.50
2023-05-02T09:03:24.584Z,5.10
2023-05-02T09:04:24.640Z,4.70
2023-05-02T09:05:24.597Z,4.40
2023-05-02T09:06:24.643Z,3.60
2023-05-02T09:07:24.612Z,4.10
2023-05-02T09:08:24.630Z,5.90
2023-05-02T09:09:24.631Z,4.90
2023-05-02T09:10:24.643Z,4.80
2023-05-02T09:11:24.644Z,4.10
2023-05-02T09:12:24.656Z,4.30
2023-05-02T09:13:24.665Z,3.80
2023-05-02T09:14:24.672Z,3.90
2023-05-02T09:15:24.683Z,4.30
2023-05-02T09:16:24.744Z,3.10
2023-05-02T09:17:24.747Z,3.50
2023-05-02T09:18:24.708Z,4.20
2023-05-02T09:19:24.738Z,4.80
2023-05-02T09:20:24.739Z,6.00
2023-05-02T09:21:24.745Z,5.40
2023-05-02T09:22:24.742Z,5.10
2023-05-02T09:23:24.747Z,4.50
2023-05-02T09:24:24.756Z,3.20
2023-05-02T09:25:24.762Z,3.70
2023-05-02T09:26:24.789Z,4.50
2023-05-02T09:27:24.780Z,3.90
2023-05-02T09:28:24.806Z,4.30
2023-05-02T09:29:24.809Z,4.20
2023-05-02T09:30:24.811Z,4.00
2023-05-02T09:31:43.388Z,4.10
2023-05-02T09:32:24.827Z,4.50
2023-05-02T09:33:24.877Z,5.00
2023-05-02T09:34:24.861Z,5.30
2023-05-02T09:35:24.897Z,5.00
2023-05-02T09:36:24.866Z,6.60
2023-05-02T09:37:24.876Z,11.90
2023-05-02T09:38:24.910Z,12.90
2023-05-02T09:39:26.053Z,41.00
2023-05-02T09:40:24.910Z,39.80
2023-05-02T09:41:24.909Z,30.40
2023-05-02T09:42:24.921Z,11.10
2023-05-02T09:43:24.925Z,18.70
2023-05-02T09:44:24.948Z,14.40
2023-05-02T09:45:24.942Z,27.60
2023-05-02T09:46:25.047Z,18.60
2023-05-02T09:47:25.002Z,13.90
2023-05-02T09:48:24.978Z,9.40
2023-05-02T09:49:25.002Z,7.90
2023-05-02T09:50:24.988Z,6.80
2023-05-02T09:51:25.011Z,5.40
2023-05-02T09:52:25.012Z,5.50
2023-05-02T09:53:25.023Z,6.90
2023-05-02T09:54:25.033Z,6.40
2023-05-02T09:55:25.039Z,5.80
2023-05-02T09:56:26.119Z,5.60
2023-05-02T09:57:25.058Z,5.80
2023-05-02T09:58:25.064Z,6.00
2023-05-02T09:59:25.083Z,6.00
2023-05-02T10:00:25.084Z,5.80
2023-05-02T10:01:25.138Z,5.80
2023-05-02T10:02:25.159Z,5.40
2023-05-02T10:03:25.132Z,4.60
2023-05-02T10:04:25.166Z,4.80
2023-05-02T10:05:25.165Z,5.90
2023-05-02T10:06:25.156Z,6.50
2023-05-02T10:07:25.157Z,5.70
2023-05-02T10:08:25.168Z,5.70
2023-05-02T10:09:25.179Z,4.50
2023-05-02T10:10:25.188Z,4.70
2023-05-02T10:11:25.203Z,4.80
2023-05-02T10:12:25.209Z,4.90
2023-05-02T10:13:25.220Z,4.70
2023-05-02T10:14:26.796Z,4.30
2023-05-02T10:15:25.242Z,4.60
2023-05-02T10:16:25.434Z,4.20
2023-05-02T10:17:25.287Z,4.40
2023-05-02T10:18:25.269Z,4.70
2023-05-02T10:19:25.287Z,5.30
2023-05-02T10:20:26.337Z,5.40
2023-05-02T10:21:25.338Z,5.80
2023-05-02T10:22:25.320Z,6.40
2023-05-02T10:23:25.340Z,6.40
2023-05-02T10:24:25.333Z,6.70
2023-05-02T10:25:25.348Z,5.60
2023-05-02T10:26:25.355Z,6.00
2023-05-02T10:27:25.368Z,5.10
2023-05-02T10:28:25.375Z,5.10
2023-05-02T10:29:25.386Z,4.60
2023-05-02T10:30:25.393Z,3.80
2023-05-02T10:31:25.432Z,3.90
2023-05-02T10:32:25.437Z,4.30
2023-05-02T10:33:25.434Z,4.20
2023-05-02T10:34:25.457Z,3.80
2023-05-02T10:35:25.457Z,5.00
2023-05-02T10:36:25.462Z,4.60
2023-05-02T10:37:25.493Z,4.60
2023-05-02T10:38:25.479Z,4.10
2023-05-02T10:39:25.489Z,4.10
2023-05-02T10:40:25.496Z,3.10
2023-05-02T10:41:25.511Z,3.40
2023-05-02T10:42:25.519Z,3.00
2023-05-02T10:43:25.527Z,3.10
2023-05-02T10:44:26.695Z,3.60
2023-05-02T10:45:25.553Z,4.30
2023-05-02T10:46:25.613Z,3.40
2023-05-02T10:47:25.594Z,3.50
2023-05-02T10:48:25.580Z,3.60
2023-05-02T10:49:25.589Z,3.40
2023-05-02T10:50:26.454Z,3.20
2023-05-02T10:51:25.612Z,3.50
2023-05-02T10:52:25.626Z,3.70
2023-05-02T10:53:25.690Z,3.50
2023-05-02T10:54:25.661Z,3.60
2023-05-02T10:55:25.655Z,3.60
2023-05-02T10:56:26.459Z,3.70
2023-05-02T10:57:25.671Z,3.70
2023-05-02T10:58:25.698Z,3.70
2023-05-02T10:59:25.693Z,3.40
2023-05-02T11:00:25.748Z,3.30
2023-05-02T11:01:25.955Z,3.30
2023-05-02T11:02:25.822Z,2.90
2023-05-02T11:03:25.846Z,2.80
2023-05-02T11:04:25.737Z,3.10
2023-05-02T11:05:25.761Z,2.70
2023-05-02T11:06:25.804Z,3.00
2023-05-02T11:07:25.772Z,2.60
2023-05-02T11:08:25.784Z,3.50
2023-05-02T11:09:25.830Z,2.80
2023-05-02T11:10:25.801Z,2.70
2023-05-02T11:11:25.866Z,2.80
2023-05-02T11:12:25.828Z,2.60
2023-05-02T11:13:25.835Z,2.70
2023-05-02T11:14:25.862Z,2.40
2023-05-02T11:15:25.857Z,2.00
2023-05-02T11:16:25.918Z,2.50
2023-05-02T11:17:25.947Z,2.10
2023-05-02T11:18:25.890Z,2.10
2023-05-02T11:19:25.903Z,2.10
2023-05-02T11:20:25.924Z,1.80
2023-05-02T11:21:25.924Z,2.00
2023-05-02T11:22:25.937Z,1.40
2023-05-02T11:23:26.159Z,1.80
2023-05-02T11:24:25.953Z,1.60
2023-05-02T11:25:25.985Z,1.60
2023-05-02T11:26:25.986Z,1.80
2023-05-02T11:27:25.994Z,1.80
2023-05-02T11:28:26.002Z,1.60
2023-05-02T11:29:26.013Z,1.30
2023-05-02T11:30:26.025Z,1.60
2023-05-02T11:31:26.078Z,1.90
2023-05-02T11:32:26.261Z,1.50
2023-05-02T11:33:26.061Z,1.60
2023-05-02T11:34:26.115Z,1.70
2023-05-02T11:35:26.092Z,1.80
2023-05-02T11:36:26.081Z,1.70
2023-05-02T11:37:26.100Z,1.70
2023-05-02T11:38:26.107Z,2.00
2023-05-02T11:39:26.121Z,1.90
2023-05-02T11:40:26.129Z,1.60
2023-05-02T11:41:26.251Z,1.40
2023-05-02T11:42:26.153Z,1.70
2023-05-02T11:43:26.162Z,1.80
2023-05-02T11:44:26.167Z,1.70
2023-05-02T11:45:26.182Z,2.10
2023-05-02T11:46:26.228Z,2.20
2023-05-02T11:47:26.261Z,2.10
2023-05-02T11:48:26.220Z,1.80
2023-05-02T11:49:26.228Z,2.30
2023-05-02T11:50:26.242Z,2.00
2023-05-02T11:51:26.254Z,1.70
2023-05-02T11:52:26.282Z,1.70
2023-05-02T11:53:26.309Z,1.70
2023-05-02T11:54:26.292Z,1.80
2023-05-02T11:55:26.300Z,1.80
2023-05-02T11:56:26.299Z,2.00
2023-05-02T11:57:26.337Z,1.70
2023-05-02T11:58:26.383Z,1.90
2023-05-02T11:59:26.335Z,2.10
2023-05-02T12:00:26.343Z,2.20
2023-05-02T12:01:26.359Z,1.90
2023-05-02T12:02:26.450Z,2.00
2023-05-02T12:03:26.459Z,2.20
2023-05-02T12:04:26.392Z,1.70
2023-05-02T12:05:26.486Z,2.00
2023-05-02T12:06:26.504Z,1.60
2023-05-02T12:07:26.427Z,2.00
2023-05-02T12:08:26.463Z,1.90
2023-05-02T12:09:26.464Z,1.80
2023-05-02T12:10:26.458Z,2.10
2023-05-02T12:11:26.479Z,2.10
2023-05-02T12:12:26.480Z,2.10
2023-05-02T12:13:26.529Z,1.90
2023-05-02T12:14:26.509Z,2.10
2023-05-02T12:15:26.524Z,1.80
2023-05-02T12:16:26.552Z,1.90
2023-05-02T12:17:26.601Z,2.00
2023-05-02T12:18:26.551Z,2.10
2023-05-02T12:19:26.561Z,2.50
2023-05-02T12:20:26.570Z,2.10
2023-05-02T12:21:26.586Z,1.70
2023-05-02T12:22:26.592Z,2.00
2023-05-02T12:23:26.605Z,2.30
2023-05-02T12:24:26.616Z,1.80
2023-05-02T12:25:26.635Z,2.00
2023-05-02T12:26:26.663Z,2.10
2023-05-02T12:27:26.662Z,2.10
2023-05-02T12:28:26.664Z,1.70
2023-05-02T12:29:26.694Z,1.80
2023-05-02T12:30:26.690Z,1.90
2023-05-02T12:31:26.713Z,1.90
2023-05-02T12:32:27.607Z,1.90
2023-05-02T12:33:26.723Z,1.90
2023-05-02T12:34:26.729Z,2.10
2023-05-02T12:35:26.743Z,1.80
2023-05-02T12:36:26.751Z,1.70
2023-05-02T12:37:26.768Z,2.00
2023-05-02T12:38:26.777Z,2.10
2023-05-02T12:39:26.791Z,1.90
2023-05-02T12:40:26.809Z,1.90
2023-05-02T12:41:26.827Z,2.00
2023-05-02T12:42:26.853Z,1.70
2023-05-02T12:43:26.844Z,1.70
2023-05-02T12:44:26.852Z,1.70
2023-05-02T12:45:26.889Z,1.70
2023-05-02T12:46:26.913Z,1.80
2023-05-02T12:47:26.928Z,1.90
2023-05-02T12:48:26.904Z,2.10
2023-05-02T12:49:26.909Z,1.80
2023-05-02T12:50:26.920Z,2.20
2023-05-02T12:51:26.941Z,1.80
2023-05-02T12:52:26.947Z,1.80
2023-05-02T12:53:26.964Z,1.60
2023-05-02T12:54:26.977Z,1.60
2023-05-02T12:55:26.986Z,1.60
2023-05-02T12:56:26.995Z,2.00
2023-05-02T12:57:27.014Z,1.80
2023-05-02T12:58:27.029Z,1.50
2023-05-02T12:59:27.044Z,1.40
2023-05-02T13:00:27.054Z,1.50
2023-05-02T13:01:27.242Z,1.40
2023-05-02T13:02:27.141Z,1.80
2023-05-02T13:03:27.148Z,1.70
2023-05-02T13:04:27.094Z,1.90
2023-05-02T13:05:27.136Z,1.60
2023-05-02T13:06:27.166Z,1.80
2023-05-02T13:07:27.134Z,1.60
2023-05-02T13:08:27.149Z,1.50
2023-05-02T13:09:27.165Z,1.90
2023-05-02T13:10:27.177Z,1.60
2023-05-02T13:11:27.188Z,1.40
2023-05-02T13:12:27.196Z,1.70
2023-05-02T13:13:27.209Z,1.70
2023-05-02T13:14:27.214Z,1.50
2023-05-02T13:15:27.310Z,1.70
2023-05-02T13:16:27.334Z,1.70
2023-05-02T13:17:27.459Z,1.70